Time;durP1;ratioP1;P1;durP2;ratioP2;P2;SDS_P1;SDS_P2;PMS_P1;PMS_P2;Temp;Humidity;BMP_temperature;BMP_pressure;BME280_temperature;BME280_humidity;BME280_pressure;Samples;Min_cycle;Max_cycle;Signal;HPM_P1;HPM_P2
2024/04/10 00:02:12;;;;;;;10.50;4.43;;;9.00;99.90;;;;;;5528407;26;20449;-59
2024/04/10 00:04:39;;;;;;;14.73;5.57;;;9.00;1.00;;;;;;5528259;26;20755;-59
2024/04/10 00:07:10;;;;;;;17.70;3.77;;;9.00;26.70;;;;;;5528038;26;20506;-59
2024/04/10 00:09:36;;;;;;;8.77;3.57;;;9.00;99.90;;;;;;5528090;26;20904;-59
2024/04/10 00:12:05;;;;;;;11.30;4.77;;;9.00;99.90;;;;;;5527793;26;20745;-58
2024/04/10 00:14:32;;;;;;;13.03;3.60;;;9.00;1.00;;;;;;5528219;26;20506;-59
2024/04/10 00:17:04;;;;;;;11.63;4.03;;;9.00;1.00;;;;;;5527824;26;20455;-59
2024/04/10 00:19:30;;;;;;;17.30;4.00;;;9.00;1.00;;;;;;5527966;26;20491;-58
2024/04/10 00:22:00;;;;;;;12.90;4.60;;;9.00;1.00;;;;;;5528044;25;20514;-58
2024/04/10 00:24:26;;;;;;;13.07;5.20;;;9.00;1.00;;;;;;5528039;25;20392;-59
2024/04/10 00:26:55;;;;;;;10.93;4.10;;;9.00;1.00;;;;;;5527660;25;20449;-59
2024/04/10 00:29:22;;;;;;;12.27;3.97;;;9.00;1.00;;;;;;5527613;26;20447;-59
2024/04/10 00:31:53;;;;;;;11.37;3.83;;;9.00;1.00;;;;;;5527687;26;20454;-58
2024/04/10 00:34:22;;;;;;;13.73;4.83;;;9.00;1.00;;;;;;5527175;26;20513;-59
2024/04/10 00:36:51;;;;;;;15.03;4.90;;;9.00;90.20;;;;;;5527376;26;20904;-59
2024/04/10 00:39:17;;;;;;;9.77;4.70;;;9.00;1.00;;;;;;5527530;26;20450;-59
2024/04/10 00:41:46;;;;;;;9.30;3.87;;;9.00;1.00;;;;;;5527528;26;20570;-59
2024/04/10 00:44:13;;;;;;;10.57;4.20;;;8.90;1.00;;;;;;5527604;26;20443;-59
2024/04/10 00:46:42;;;;;;;6.93;3.27;;;8.90;7.50;;;;;;5527556;26;20522;-58
2024/04/10 00:49:08;;;;;;;9.47;3.30;;;8.90;1.00;;;;;;5527195;26;20443;-58
2024/04/10 00:51:42;;;;;;;13.20;4.20;;;8.90;1.00;;;;;;5526992;26;20462;-58
2024/04/10 00:54:10;;;;;;;12.73;4.90;;;8.90;1.00;;;;;;5527557;26;20436;-59
2024/04/10 00:56:39;;;;;;;16.93;3.87;;;8.90;1.00;;;;;;5527435;26;20434;-59
2024/04/10 00:59:07;;;;;;;12.73;4.03;;;8.90;99.90;;;;;;5529864;26;20392;-58
2024/04/10 01:01:36;;;;;;;18.87;5.20;;;8.90;99.90;;;;;;5530719;26;20443;-59
2024/04/10 01:04:03;;;;;;;11.97;4.37;;;8.90;1.00;;;;;;5531129;26;20503;-60
2024/04/10 01:06:32;;;;;;;12.70;4.40;;;8.80;99.90;;;;;;5531096;26;20481;-59
2024/04/10 01:09:02;;;;;;;13.77;3.97;;;8.80;99.90;;;;;;5530788;26;20508;-59
2024/04/10 01:11:31;;;;;;;8.83;3.33;;;8.70;1.00;;;;;;5530925;25;20463;-59
2024/04/10 01:13:58;;;;;;;11.27;3.73;;;8.70;1.00;;;;;;5531139;25;20739;-59
2024/04/10 01:16:29;;;;;;;14.40;4.90;;;8.70;99.90;;;;;;5530914;26;20510;-59
2024/04/10 01:18:55;;;;;;;7.90;4.10;;;8.70;1.00;;;;;;5530607;26;20800;-59
2024/04/10 01:21:24;;;;;;;16.23;4.40;;;8.70;99.90;;;;;;5530392;26;20873;-59
2024/04/10 01:23:53;;;;;;;10.83;3.70;;;8.60;99.90;;;;;;5530780;26;20924;-59
2024/04/10 01:26:22;;;;;;;17.37;4.43;;;8.60;1.00;;;;;;5530930;26;20595;-59
2024/04/10 01:28:48;;;;;;;13.50;3.53;;;8.50;99.90;;;;;;5530322;26;20904;-59
2024/04/10 01:31:17;;;;;;;14.40;4.73;;;8.50;1.00;;;;;;5530522;26;20536;-59
2024/04/10 01:33:43;;;;;;;13.10;3.80;;;8.50;99.90;;;;;;5530255;26;20519;-59
2024/04/10 01:36:12;;;;;;;13.23;4.40;;;8.40;99.90;;;;;;5530731;26;20459;-59
2024/04/10 01:38:40;;;;;;;12.80;4.40;;;8.40;1.00;;;;;;5530143;26;20441;-59
2024/04/10 01:41:12;;;;;;;12.97;5.27;;;8.40;1.00;;;;;;5530369;26;20451;-59
2024/04/10 01:43:38;;;;;;;11.30;3.60;;;8.30;99.90;;;;;;5530462;26;20451;-59
2024/04/10 01:46:07;;;;;;;17.83;4.67;;;8.30;1.00;;;;;;5530477;26;20537;-59
2024/04/10 01:48:33;;;;;;;12.50;4.30;;;8.30;1.00;;;;;;5530486;26;20541;-59
2024/04/10 01:51:02;;;;;;;11.40;4.23;;;8.20;1.00;;;;;;5530159;26;20459;-59
2024/04/10 01:53:29;;;;;;;11.97;4.10;;;8.20;99.90;;;;;;5530328;26;20400;-59
2024/04/10 01:55:58;;;;;;;11.47;3.60;;;8.20;1.00;;;;;;5530279;26;20454;-58
2024/04/10 01:58:27;;;;;;;18.03;4.43;;;8.20;99.90;;;;;;5530318;26;20400;-59
2024/04/10 02:00:56;;;;;;;13.60;4.57;;;8.20;99.90;;;;;;5530373;26;20980;-58
2024/04/10 02:03:23;;;;;;;18.43;4.40;;;8.10;99.90;;;;;;5530078;26;20458;-59
2024/04/10 02:05:52;;;;;;;19.60;5.40;;;8.00;99.90;;;;;;5530306;26;20752;-59
2024/04/10 02:08:18;;;;;;;17.07;4.73;;;8.00;34.20;;;;;;5529405;26;20388;-59
2024/04/10 02:10:49;;;;;;;14.30;4.77;;;8.00;1.00;;;;;;5530122;26;20987;-59
2024/04/10 02:13:16;;;;;;;16.07;4.27;;;8.00;1.00;;;;;;5530275;25;20454;-59
2024/04/10 02:15:48;;;;;;;14.43;4.40;;;8.00;1.00;;;;;;5530113;26;20463;-60
2024/04/10 02:18:14;;;;;;;12.20;4.03;;;8.00;99.90;;;;;;5530130;26;20388;-59
2024/04/10 02:20:43;;;;;;;17.00;4.60;;;8.00;1.00;;;;;;5530089;26;20506;-60
2024/04/10 02:23:09;;;;;;;19.17;6.20;;;8.00;1.00;;;;;;5529917;26;20384;-59
2024/04/10 02:25:38;;;;;;;14.93;4.40;;;7.90;1.00;;;;;;5529908;26;20516;-58
2024/04/10 02:28:05;;;;;;;11.17;4.53;;;7.90;99.90;;;;;;5529984;25;20691;-59
2024/04/10 02:30:34;;;;;;;10.73;4.80;;;7.80;99.90;;;;;;5529843;26;20566;-59
2024/04/10 02:33:03;;;;;;;14.50;4.80;;;7.80;99.90;;;;;;5529497;25;20499;-58
2024/04/10 02:35:32;;;;;;;12.47;3.97;;;7.80;99.90;;;;;;5529716;26;20459;-59
2024/04/10 02:37:58;;;;;;;14.47;4.50;;;7.80;99.90;;;;;;5529712;26;20503;-59
2024/04/10 02:40:29;;;;;;;14.23;4.30;;;7.70;55.80;;;;;;5529726;26;20459;-59
2024/04/10 02:43:04;;;;;;;12.30;4.30;;;7.70;1.00;;;;;;5529419;26;20911;-59
2024/04/10 02:45:33;;;;;;;15.20;4.60;;;7.70;99.90;;;;;;5529704;26;20392;-59
2024/04/10 02:48:02;;;;;;;13.27;4.23;;;7.70;1.00;;;;;;5529614;26;20497;-59
2024/04/10 02:50:31;;;;;;;11.83;4.27;;;7.70;99.90;;;;;;5529572;26;20795;-59
2024/04/10 02:52:57;;;;;;;12.03;4.20;;;7.70;1.00;;;;;;5529371;26;20908;-59
2024/04/10 02:55:27;;;;;;;14.33;4.53;;;7.70;1.00;;;;;;5529404;25;20514;-59
2024/04/10 02:57:53;;;;;;;13.07;4.20;;;7.60;99.90;;;;;;5529623;26;20778;-59
2024/04/10 03:00:22;;;;;;;10.57;4.20;;;7.60;29.90;;;;;;5529582;26;20567;-59
2024/04/10 03:02:48;;;;;;;15.00;4.00;;;7.60;1.40;;;;;;5529408;25;20499;-59
2024/04/10 03:05:20;;;;;;;12.90;4.00;;;7.60;1.00;;;;;;5529179;26;20462;-59
2024/04/10 03:07:46;;;;;;;14.20;5.30;;;7.60;99.90;;;;;;5529249;26;20883;-59
2024/04/10 03:10:15;;;;;;;12.47;4.70;;;7.50;99.90;;;;;;5528781;26;20912;-59
2024/04/10 03:12:41;;;;;;;14.77;4.37;;;7.40;99.90;;;;;;5529318;26;20411;-59
2024/04/10 03:15:11;;;;;;;14.73;3.70;;;7.40;1.00;;;;;;5529062;26;20466;-59
2024/04/10 03:17:37;;;;;;;13.87;4.80;;;7.40;42.10;;;;;;5528996;26;20392;-59
2024/04/10 03:20:07;;;;;;;17.07;4.70;;;7.40;99.90;;;;;;5528577;26;20862;-58
2024/04/10 03:22:36;;;;;;;16.97;4.00;;;7.40;1.00;;;;;;5528796;25;20392;-59
2024/04/10 03:25:05;;;;;;;12.73;4.23;;;7.40;59.00;;;;;;5528804;26;20463;-59
2024/04/10 03:27:31;;;;;;;14.90;4.60;;;7.30;99.90;;;;;;5528942;26;20793;-58
2024/04/10 03:30:00;;;;;;;12.40;4.83;;;7.30;99.90;;;;;;5528948;26;20389;-58
2024/04/10 03:32:27;;;;;;;13.57;3.80;;;7.40;99.90;;;;;;5528827;26;20896;-58
2024/04/10 03:34:56;;;;;;;11.50;4.10;;;7.50;99.90;;;;;;5528719;26;20467;-59
2024/04/10 03:37:22;;;;;;;14.00;4.10;;;7.60;99.90;;;;;;5528760;26;20459;-58
2024/04/10 03:39:56;;;;;;;11.97;4.00;;;7.60;99.90;;;;;;5528798;25;20539;-59
2024/04/10 03:42:22;;;;;;;14.53;4.40;;;7.70;1.00;;;;;;5529028;26;20450;-59
2024/04/10 03:44:51;;;;;;;17.10;4.60;;;7.70;1.00;;;;;;5528363;26;20574;-59
2024/04/10 03:47:20;;;;;;;19.87;4.23;;;7.70;1.00;;;;;;5561216;25;20500;-59
2024/04/10 03:49:49;;;;;;;10.90;4.40;;;7.80;1.00;;;;;;5565728;25;20419;-58
2024/04/10 03:52:18;;;;;;;10.00;4.23;;;7.80;1.00;;;;;;5566166;25;20864;-58
2024/04/10 03:54:44;;;;;;;14.67;4.43;;;7.80;99.90;;;;;;5565992;25;20754;-58
2024/04/10 03:57:16;;;;;;;16.00;4.63;;;7.80;99.90;;;;;;5565663;25;20394;-58
2024/04/10 03:59:42;;;;;;;18.03;5.00;;;7.80;1.00;;;;;;5565688;25;20496;-58
2024/04/10 04:02:11;;;;;;;13.97;4.30;;;7.80;1.00;;;;;;5565776;25;20450;-59
2024/04/10 04:04:38;;;;;;;15.40;4.30;;;7.90;1.00;;;;;;5565978;25;20572;-58
2024/04/10 04:07:06;;;;;;;13.10;4.23;;;7.80;99.90;;;;;;5565467;25;20453;-58
2024/04/10 04:09:34;;;;;;;13.50;4.57;;;7.80;99.90;;;;;;5565454;25;20458;-58
2024/04/10 04:12:03;;;;;;;13.57;5.10;;;7.80;1.00;;;;;;5565819;25;20759;-59
2024/04/10 04:14:35;;;;;;;15.47;5.87;;;7.80;99.90;;;;;;5565547;25;20943;-58
2024/04/10 04:17:01;;;;;;;13.20;5.47;;;7.80;1.00;;;;;;5565448;25;20497;-59
2024/04/10 04:19:30;;;;;;;14.77;4.57;;;7.90;99.90;;;;;;5565283;25;20509;-58
2024/04/10 04:21:57;;;;;;;12.60;4.30;;;7.80;99.90;;;;;;5565347;25;20453;-59
2024/04/10 04:24:26;;;;;;;13.47;4.33;;;7.80;99.90;;;;;;5565347;25;20501;-59
2024/04/10 04:26:52;;;;;;;14.77;5.00;;;7.80;99.90;;;;;;5565012;25;20386;-59
2024/04/10 04:29:21;;;;;;;17.43;4.93;;;7.80;1.00;;;;;;5565380;25;20453;-59
2024/04/10 04:31:50;;;;;;;13.57;4.27;;;7.80;1.00;;;;;;5565945;25;20450;-59
2024/04/10 04:34:19;;;;;;;9.10;4.00;;;7.80;99.90;;;;;;5568559;25;20570;-59
2024/04/10 04:36:46;;;;;;;14.67;5.17;;;7.80;1.00;;;;;;5568522;25;20460;-58
2024/04/10 04:39:15;;;;;;;17.37;5.10;;;7.70;99.90;;;;;;5569009;25;20438;-59
2024/04/10 04:41:41;;;;;;;9.83;3.77;;;7.80;99.90;;;;;;5568689;25;20457;-59
2024/04/10 04:44:11;;;;;;;15.70;4.40;;;7.80;1.00;;;;;;5568758;25;20954;-59
2024/04/10 04:46:37;;;;;;;20.93;5.37;;;7.90;1.00;;;;;;5568711;25;20445;-59
2024/04/10 04:49:09;;;;;;;15.17;5.13;;;7.80;99.90;;;;;;5568375;25;20457;-59
2024/04/10 04:51:35;;;;;;;10.43;4.60;;;7.80;99.90;;;;;;5568417;25;20496;-59
2024/04/10 04:54:04;;;;;;;14.70;4.50;;;7.80;1.00;;;;;;5568514;25;20462;-58
2024/04/10 04:56:31;;;;;;;12.83;4.60;;;7.80;5.60;;;;;;5568363;25;20493;-59
2024/04/10 04:58:59;;;;;;;11.43;4.67;;;7.90;1.00;;;;;;5568059;25;20520;-59
2024/04/10 05:01:26;;;;;;;11.50;4.40;;;7.90;1.00;;;;;;5567874;25;20442;-58
2024/04/10 05:06:42;;;;;;;10.97;5.23;;;7.90;96.80;;;;;;5571163;25;20558;-59
2024/04/10 05:09:12;;;;;;;13.40;5.07;;;8.00;99.90;;;;;;5568049;25;20445;-59
2024/04/10 05:11:41;;;;;;;10.47;4.40;;;8.00;85.00;;;;;;5567839;25;20923;-59
2024/04/10 05:14:07;;;;;;;11.43;4.40;;;8.00;1.00;;;;;;5567787;25;20448;-58
2024/04/10 05:16:36;;;;;;;12.20;4.80;;;8.00;1.00;;;;;;5567992;25;20768;-59
2024/04/10 05:19:04;;;;;;;14.93;4.80;;;8.10;1.00;;;;;;5566779;25;20433;-59
2024/04/10 05:21:33;;;;;;;12.20;4.23;;;8.10;1.00;;;;;;5565366;25;20753;-59
2024/04/10 05:24:03;;;;;;;16.53;4.93;;;8.10;1.00;;;;;;5567689;25;20493;-60
2024/04/10 05:26:32;;;;;;;13.20;4.67;;;8.20;1.00;;;;;;5568467;25;20449;-59
2024/04/10 05:28:58;;;;;;;11.93;4.67;;;8.20;1.00;;;;;;5566834;25;20518;-58
2024/04/10 05:31:27;;;;;;;12.83;5.27;;;8.30;1.00;;;;;;5566710;25;20586;-59
2024/04/10 05:33:54;;;;;;;14.17;4.63;;;8.30;1.00;;;;;;5566667;25;20852;-60
2024/04/10 05:36:22;;;;;;;12.43;4.87;;;8.40;99.90;;;;;;5568223;25;20461;-59
2024/04/10 05:38:49;;;;;;;15.77;4.73;;;8.20;1.00;;;;;;5566442;25;20461;-59
2024/04/10 05:41:22;;;;;;;8.77;4.67;;;8.20;1.00;;;;;;5567777;25;20441;-59
2024/04/10 05:43:48;;;;;;;15.23;5.00;;;8.20;1.00;;;;;;5566737;25;20497;-59
2024/04/10 05:46:17;;;;;;;12.77;4.30;;;8.20;1.00;;;;;;5566076;25;21356;-58
2024/04/10 05:48:43;;;;;;;13.90;4.60;;;8.10;1.00;;;;;;5567584;25;20387;-59
2024/04/10 05:51:12;;;;;;;13.80;4.50;;;8.10;1.00;;;;;;5567570;25;20457;-59
2024/04/10 05:53:38;;;;;;;18.30;5.60;;;8.30;1.00;;;;;;5567261;25;20459;-59
2024/04/10 05:56:08;;;;;;;14.93;5.13;;;8.30;1.00;;;;;;5565668;25;20453;-59
2024/04/10 05:58:37;;;;;;;9.33;4.60;;;8.30;1.00;;;;;;5567157;25;20387;-59
2024/04/10 06:01:10;;;;;;;11.73;4.43;;;8.30;1.00;;;;;;5566946;25;20777;-60
2024/04/10 06:03:37;;;;;;;11.67;4.33;;;8.30;99.90;;;;;;5566711;25;20453;-59
2024/04/10 06:06:12;;;;;;;10.23;4.40;;;8.30;1.00;;;;;;5566972;25;20498;-59
2024/04/10 06:08:39;;;;;;;16.53;5.63;;;8.30;99.90;;;;;;5567076;25;20383;-60
2024/04/10 06:11:08;;;;;;;11.60;4.60;;;8.20;99.90;;;;;;5567661;25;20862;-59
2024/04/10 06:13:37;;;;;;;13.37;4.10;;;8.30;99.90;;;;;;5567278;25;20387;-59
2024/04/10 06:16:07;;;;;;;14.70;4.83;;;8.30;99.90;;;;;;5567814;25;20466;-59
2024/04/10 06:18:34;;;;;;;10.00;4.23;;;8.30;99.90;;;;;;5567888;25;20538;-59
2024/04/10 06:21:04;;;;;;;17.17;5.40;;;8.40;1.00;;;;;;5567263;25;20508;-59
2024/04/10 06:23:31;;;;;;;19.57;5.40;;;8.40;1.00;;;;;;5567324;25;20899;-59
2024/04/10 06:26:01;;;;;;;16.07;4.80;;;8.40;99.90;;;;;;5567430;25;20936;-59
2024/04/10 06:28:27;;;;;;;15.07;6.30;;;8.50;1.00;;;;;;5567417;25;20739;-59
2024/04/10 06:31:03;;;;;;;14.27;4.30;;;8.50;99.90;;;;;;5567480;25;20505;-59
2024/04/10 06:33:31;;;;;;;15.20;5.43;;;8.60;99.90;;;;;;5566709;25;20458;-60
2024/04/10 06:36:03;;;;;;;13.23;5.40;;;8.70;99.90;;;;;;5567315;25;20911;-60
2024/04/10 06:38:29;;;;;;;13.53;5.33;;;8.70;99.90;;;;;;5566057;25;20399;-60
2024/04/10 06:40:59;;;;;;;14.20;4.90;;;8.70;99.90;;;;;;5564783;25;20669;-60
2024/04/10 06:43:26;;;;;;;9.30;4.57;;;8.80;99.90;;;;;;5565036;25;20454;-60
2024/04/10 06:46:02;;;;;;;10.30;4.97;;;8.80;99.90;;;;;;5565002;25;20499;-60
2024/04/10 06:48:29;;;;;;;9.77;4.67;;;8.90;1.00;;;;;;5564916;25;20586;-60
2024/04/10 06:50:59;;;;;;;17.23;6.20;;;9.10;1.00;;;;;;5564409;25;20538;-58
2024/04/10 06:53:26;;;;;;;10.07;5.00;;;9.20;99.90;;;;;;5565074;25;20727;-60
2024/04/10 06:55:56;;;;;;;10.77;3.73;;;9.20;99.90;;;;;;5564885;25;20745;-59
2024/04/10 06:58:23;;;;;;;14.30;5.30;;;9.20;89.00;;;;;;5567086;25;20595;-60
2024/04/10 07:01:02;;;;;;;10.27;4.50;;;9.20;99.90;;;;;;5564600;25;20917;-60
2024/04/10 07:03:30;;;;;;;9.87;4.97;;;9.40;28.30;;;;;;5564011;25;20835;-60
2024/04/10 07:06:07;;;;;;;12.10;4.80;;;9.50;69.50;;;;;;5563944;25;20544;-59
2024/04/10 07:08:35;;;;;;;15.03;5.10;;;9.50;99.90;;;;;;5564055;25;20445;-59
2024/04/10 07:11:09;;;;;;;8.97;4.77;;;9.60;99.90;;;;;;5563931;25;20394;-60
2024/04/10 07:13:35;;;;;;;18.33;5.77;;;9.80;1.00;;;;;;5564446;25;20457;-60
2024/04/10 07:16:08;;;;;;;14.07;5.10;;;9.80;1.00;;;;;;5566168;25;20461;-59
2024/04/10 07:18:34;;;;;;;14.73;6.10;;;9.70;1.00;;;;;;5566770;25;20784;-60
2024/04/10 07:21:04;;;;;;;11.47;4.90;;;9.60;1.00;;;;;;5566477;25;20453;-60
2024/04/10 07:23:31;;;;;;;12.60;5.60;;;9.70;74.70;;;;;;5566285;25;21023;-60
2024/04/10 07:26:12;;;;;;;17.90;6.73;;;10.00;97.20;;;;;;5566234;25;20954;-60
2024/04/10 07:28:41;;;;;;;9.83;4.33;;;10.10;1.00;;;;;;5566407;25;20386;-60
2024/04/10 07:31:13;;;;;;;17.57;5.40;;;10.20;1.00;;;;;;5566021;25;20493;-60
2024/04/10 07:33:40;;;;;;;10.83;5.00;;;10.40;1.00;;;;;;5565832;25;20521;-60
2024/04/10 07:36:11;;;;;;;16.33;6.00;;;10.50;1.00;;;;;;5564738;25;20516;-60
2024/04/10 07:38:38;;;;;;;9.97;5.40;;;10.40;99.90;;;;;;5566443;25;20387;-60
2024/04/10 07:41:07;;;;;;;9.00;5.10;;;10.40;1.00;;;;;;5566139;25;20742;-59
2024/04/10 07:43:34;;;;;;;13.43;5.27;;;10.50;99.90;;;;;;5565864;25;20521;-60
2024/04/10 07:46:13;;;;;;;11.97;6.37;;;10.30;99.90;;;;;;5565961;25;20465;-60
2024/04/10 07:48:40;;;;;;;14.03;5.30;;;10.40;99.90;;;;;;5566207;25;20457;-60
2024/04/10 07:51:10;;;;;;;12.17;5.23;;;10.50;1.00;;;;;;5565928;25;20736;-60
2024/04/10 07:53:37;;;;;;;15.77;5.70;;;10.50;99.90;;;;;;5565866;25;20465;-59
2024/04/10 07:56:07;;;;;;;11.50;5.47;;;10.40;99.90;;;;;;5566103;25;20454;-60
2024/04/10 07:58:34;;;;;;;10.67;5.50;;;10.30;99.90;;;;;;5565926;25;20382;-60
2024/04/10 08:01:03;;;;;;;11.23;5.40;;;10.40;99.90;;;;;;5565622;25;20453;-60
2024/04/10 08:03:34;;;;;;;14.10;5.70;;;10.60;99.90;;;;;;5565736;25;20500;-60
2024/04/10 08:06:04;;;;;;;10.87;5.20;;;10.60;99.90;;;;;;5565513;25;20450;-60
2024/04/10 08:08:31;;;;;;;14.80;5.60;;;10.70;99.90;;;;;;5569157;25;20532;-61
2024/04/10 08:11:03;;;;;;;14.60;6.20;;;10.70;99.90;;;;;;5569022;25;20457;-60
2024/04/10 08:13:31;;;;;;;15.73;6.63;;;10.70;99.90;;;;;;5569323;25;20431;-60
2024/04/10 08:16:01;;;;;;;12.73;5.83;;;10.50;99.90;;;;;;5569158;25;20509;-59
2024/04/10 08:18:28;;;;;;;12.07;6.60;;;10.70;1.00;;;;;;5569128;25;20803;-60
2024/04/10 08:21:04;;;;;;;17.37;6.50;;;10.80;1.00;;;;;;5568841;25;20471;-61
2024/04/10 08:23:32;;;;;;;11.60;6.33;;;10.80;99.90;;;;;;5569201;25;20452;-60
2024/04/10 08:26:02;;;;;;;10.67;5.90;;;11.10;99.90;;;;;;5569235;25;20435;-61
2024/04/10 08:28:29;;;;;;;12.63;6.10;;;11.30;99.90;;;;;;5569241;25;20462;-60
2024/04/10 08:30:59;;;;;;;14.53;6.70;;;11.40;99.90;;;;;;5566432;25;20747;-60
2024/04/10 08:33:26;;;;;;;14.20;6.40;;;11.30;25.40;;;;;;5565799;25;20481;-60
2024/04/10 08:35:59;;;;;;;14.90;6.30;;;11.00;1.00;;;;;;5566195;25;20445;-60
2024/04/10 08:38:29;;;;;;;12.90;5.80;;;11.10;1.00;;;;;;5566459;25;20450;-60
2024/04/10 08:40:58;;;;;;;12.43;6.17;;;10.90;1.00;;;;;;5566048;25;20749;-60
2024/04/10 08:43:26;;;;;;;13.30;6.10;;;10.80;1.00;;;;;;5566186;25;20391;-60
2024/04/10 08:45:58;;;;;;;13.93;7.57;;;10.90;99.90;;;;;;5567792;25;20910;-60
2024/04/10 08:48:25;;;;;;;12.23;6.60;;;10.90;26.10;;;;;;5568905;25;20442;-60
2024/04/10 08:50:56;;;;;;;8.50;5.20;;;10.90;90.60;;;;;;5567463;25;20581;-61
2024/04/10 08:53:23;;;;;;;11.07;6.53;;;11.20;99.90;;;;;;5568862;25;20487;-60
2024/04/10 08:55:55;;;;;;;8.83;6.20;;;11.20;61.90;;;;;;5549118;25;20536;-60
2024/04/10 08:58:21;;;;;;;15.63;6.40;;;11.40;46.00;;;;;;5530785;26;20493;-60
2024/04/10 09:00:50;;;;;;;9.60;6.07;;;11.50;82.20;;;;;;5530539;26;20517;-61
2024/04/10 09:03:16;;;;;;;14.47;5.43;;;11.80;1.00;;;;;;5531091;26;20503;-60
2024/04/10 09:05:45;;;;;;;12.60;5.50;;;12.60;9.40;;;;;;5530196;26;20536;-60
2024/04/10 09:08:12;;;;;;;11.93;5.40;;;13.30;1.00;;;;;;5527395;26;20507;-60
2024/04/10 09:10:41;;;;;;;8.93;5.57;;;14.30;1.00;;;;;;5526401;25;20506;-61
2024/04/10 09:13:13;;;;;;;11.20;5.70;;;14.90;99.90;;;;;;5528419;26;20691;-61
2024/04/10 09:15:42;;;;;;;9.80;5.53;;;15.10;1.00;;;;;;5528226;26;21028;-61
2024/04/10 09:18:09;;;;;;;8.47;5.50;;;15.30;99.90;;;;;;5526844;26;21319;-61
2024/04/10 09:20:39;;;;;;;11.93;5.07;;;15.10;54.30;;;;;;5528569;26;20803;-60
2024/04/10 09:23:08;;;;;;;11.77;5.17;;;15.40;99.90;;;;;;5530657;26;20510;-60
2024/04/10 09:25:38;;;;;;;10.20;5.60;;;15.40;99.90;;;;;;5527950;26;20458;-60
2024/04/10 09:28:06;;;;;;;11.10;4.80;;;15.60;99.90;;;;;;5527819;26;20489;-60
2024/04/10 09:30:41;;;;;;;8.43;5.30;;;15.60;99.90;;;;;;5527837;25;20904;-60
2024/04/10 09:33:09;;;;;;;10.80;5.53;;;14.90;99.90;;;;;;5527581;26;20466;-60
2024/04/10 09:35:38;;;;;;;8.33;5.20;;;14.70;99.90;;;;;;5527447;25;20450;-61
2024/04/10 09:38:04;;;;;;;9.40;5.10;;;14.10;99.90;;;;;;5527029;26;20467;-60
2024/04/10 09:40:34;;;;;;;11.70;5.50;;;13.60;99.90;;;;;;5529990;26;20567;-61
2024/04/10 09:43:04;;;;;;;12.87;6.50;;;13.50;99.90;;;;;;5530131;26;20455;-61
2024/04/10 09:45:39;;;;;;;12.37;5.43;;;13.20;99.90;;;;;;5529300;26;20470;-61
2024/04/10 09:48:08;;;;;;;7.90;4.80;;;13.00;1.00;;;;;;5527552;26;20449;-61
2024/04/10 09:50:39;;;;;;;11.03;5.33;;;13.00;99.90;;;;;;5528478;26;20519;-60
2024/04/10 09:53:07;;;;;;;10.97;5.33;;;13.10;1.00;;;;;;5526954;25;20498;-60
2024/04/10 09:55:38;;;;;;;9.33;5.10;;;13.30;1.00;;;;;;5526845;25;20507;-61
2024/04/10 09:58:07;;;;;;;9.50;4.70;;;13.40;1.00;;;;;;5527388;26;20439;-61
2024/04/10 10:00:40;;;;;;;11.70;4.87;;;13.70;99.90;;;;;;5527370;26;20449;-61
2024/04/10 10:03:07;;;;;;;7.77;4.67;;;13.70;99.90;;;;;;5553836;25;20498;-61
2024/04/10 10:05:37;;;;;;;8.53;5.10;;;13.50;99.90;;;;;;5562482;25;20788;-61
2024/04/10 10:08:05;;;;;;;11.70;4.47;;;13.20;99.90;;;;;;5563596;25;20465;-61
2024/04/10 10:10:49;;;;;;;9.90;4.97;;;13.30;99.90;;;;;;5564580;25;20438;-60
2024/04/10 10:13:26;;;;;;;10.77;5.40;;;13.20;99.90;;;;;;5563762;25;20981;-61
2024/04/10 10:16:01;;;;;;;8.57;5.07;;;13.00;1.00;;;;;;5565765;25;20536;-61
2024/04/10 10:18:28;;;;;;;9.23;4.67;;;13.00;1.00;;;;;;5566382;25;20412;-60
2024/04/10 10:21:05;;;;;;;9.90;4.33;;;12.80;1.00;;;;;;5565721;25;20461;-61
2024/04/10 10:23:31;;;;;;;10.30;4.30;;;12.70;1.00;;;;;;5564090;25;20457;-61
2024/04/10 10:26:00;;;;;;;8.37;4.80;;;12.60;1.00;;;;;;5563621;25;20558;-60
2024/04/10 10:28:29;;;;;;;14.93;4.90;;;12.70;1.00;;;;;;5562909;25;20784;-61
2024/04/10 10:31:12;;;;;;;12.27;4.67;;;13.20;1.00;;;;;;5562748;25;20946;-61
2024/04/10 10:33:40;;;;;;;10.03;4.00;;;13.60;99.90;;;;;;5564291;25;20619;-61
2024/04/10 10:36:10;;;;;;;9.47;3.73;;;13.70;1.00;;;;;;5565494;25;20566;-61
2024/04/10 10:38:37;;;;;;;7.73;4.33;;;13.90;1.00;;;;;;5567291;25;20465;-61
2024/04/10 10:41:10;;;;;;;7.30;3.67;;;14.50;1.00;;;;;;5566929;25;20815;-61
2024/04/10 10:43:37;;;;;;;5.70;3.20;;;15.30;1.00;;;;;;5563557;25;21013;-61
2024/04/10 10:46:08;;;;;;;9.00;3.60;;;15.70;99.90;;;;;;5564170;25;20461;-61
2024/04/10 10:48:37;;;;;;;10.50;3.97;;;16.10;99.90;;;;;;5564215;25;20445;-61
2024/04/10 10:51:06;;;;;;;7.17;4.10;;;16.10;50.60;;;;;;5563916;25;20425;-61
2024/04/10 10:53:33;;;;;;;9.63;3.87;;;16.00;1.00;;;;;;5563422;25;20942;-61
2024/04/10 10:56:02;;;;;;;8.80;3.87;;;15.40;1.00;;;;;;5556491;25;20540;-61
2024/04/10 10:58:29;;;;;;;6.80;3.60;;;15.20;1.00;;;;;;5525995;26;20512;-60
2024/04/10 11:00:58;;;;;;;4.00;3.37;;;15.20;1.00;;;;;;5530350;25;20744;-61
2024/04/10 11:03:26;;;;;;;8.73;3.67;;;14.80;1.00;;;;;;5528885;26;20506;-61
2024/04/10 11:06:08;;;;;;;6.70;3.17;;;14.30;1.00;;;;;;5561707;25;20462;-61
2024/04/10 11:08:34;;;;;;;7.70;4.03;;;14.30;1.00;;;;;;5567158;25;20445;-61
2024/04/10 11:11:04;;;;;;;8.80;4.10;;;14.40;1.00;;;;;;5566498;25;20503;-61
2024/04/10 11:13:31;;;;;;;9.70;3.60;;;15.00;99.90;;;;;;5564780;25;20461;-61
2024/04/10 11:16:02;;;;;;;13.10;3.93;;;15.20;1.00;;;;;;5564677;25;20470;-61
2024/04/10 11:18:28;;;;;;;8.10;4.03;;;14.70;1.00;;;;;;5551910;25;20485;-61
2024/04/10 11:21:00;;;;;;;8.27;4.57;;;14.60;1.00;;;;;;5566329;25;20406;-61
2024/04/10 11:23:29;;;;;;;10.10;3.40;;;15.40;99.90;;;;;;5531483;25;20498;-61
2024/04/10 11:25:58;;;;;;;5.40;3.27;;;16.50;1.00;;;;;;5528743;25;20515;-61
2024/04/10 11:28:24;;;;;;;9.07;4.17;;;17.00;1.00;;;;;;5529150;25;20908;-61
2024/04/10 11:30:53;;;;;;;8.73;4.20;;;17.70;1.00;;;;;;5528665;26;20455;-61
2024/04/10 11:33:20;;;;;;;8.47;3.87;;;17.60;1.00;;;;;;5545965;25;20477;-61
2024/04/10 11:35:49;;;;;;;7.10;4.17;;;16.80;1.00;;;;;;5532637;25;20459;-61
2024/04/10 11:38:18;;;;;;;11.23;3.90;;;17.10;1.00;;;;;;5526743;26;20558;-59
2024/04/10 11:40:48;;;;;;;7.83;3.90;;;17.50;1.00;;;;;;5526161;26;20462;-59
2024/04/10 11:43:15;;;;;;;9.70;3.87;;;18.10;1.00;;;;;;5527080;25;20813;-59
2024/04/10 11:45:45;;;;;;;6.90;4.03;;;18.50;99.90;;;;;;5527503;26;20570;-59
2024/04/10 11:48:12;;;;;;;4.70;3.57;;;18.50;1.00;;;;;;5527497;25;20447;-58
2024/04/10 11:50:43;;;;;;;7.70;3.90;;;17.50;99.90;;;;;;5528520;25;20451;-58
2024/04/10 11:53:09;;;;;;;7.43;3.70;;;17.20;99.90;;;;;;5528042;26;20462;-59
2024/04/10 11:55:42;;;;;;;7.27;3.23;;;16.50;99.90;;;;;;5534725;25;20523;-59
2024/04/10 11:58:09;;;;;;;8.50;3.87;;;16.30;99.90;;;;;;5564540;25;20537;-58
2024/04/10 12:00:38;;;;;;;7.27;3.80;;;16.30;99.90;;;;;;5562681;25;20522;-59
2024/04/10 12:03:05;;;;;;;6.33;3.50;;;16.40;99.90;;;;;;5561966;25;20457;-59
2024/04/10 12:05:36;;;;;;;5.30;2.87;;;16.40;99.90;;;;;;5561841;25;20497;-59
2024/04/10 12:08:02;;;;;;;5.97;3.60;;;17.00;99.90;;;;;;5562075;25;20465;-59
2024/04/10 12:10:32;;;;;;;5.33;3.20;;;17.30;99.90;;;;;;5562037;25;20461;-58
2024/04/10 12:13:03;;;;;;;3.53;2.90;;;17.30;99.90;;;;;;5561707;25;20461;-59
2024/04/10 12:15:32;;;;;;;4.63;2.70;;;17.70;1.00;;;;;;5561593;25;20461;-59
2024/04/10 12:17:58;;;;;;;5.40;2.97;;;18.20;1.00;;;;;;5561157;25;20469;-60
2024/04/10 12:20:28;;;;;;;4.10;2.67;;;18.80;1.00;;;;;;5562031;25;21095;-61
2024/04/10 12:22:55;;;;;;;5.63;3.00;;;19.10;1.00;;;;;;5561870;25;20568;-60
2024/04/10 12:25:24;;;;;;;5.53;2.43;;;19.40;1.00;;;;;;5561810;25;20474;-59
2024/04/10 12:27:50;;;;;;;5.20;3.00;;;19.70;99.90;;;;;;5562159;25;20526;-58
2024/04/10 12:30:22;;;;;;;5.47;3.73;;;19.00;99.90;;;;;;5544742;25;20469;-61
2024/04/10 12:32:49;;;;;;;6.00;3.30;;;18.30;99.90;;;;;;5538868;25;20525;-60
2024/04/10 12:38:06;;;;;;;7.17;3.80;;;17.00;99.90;;;;;;5563681;25;20553;-60
2024/04/10 12:40:35;;;;;;;6.33;3.83;;;16.00;99.90;;;;;;5562830;25;20918;-59
2024/04/10 12:43:06;;;;;;;6.90;2.57;;;15.20;99.90;;;;;;5564219;25;20489;-60
2024/04/10 12:45:35;;;;;;;8.07;3.27;;;14.90;99.90;;;;;;5557593;25;20612;-60
2024/04/10 12:48:05;;;;;;;6.50;3.40;;;15.00;62.80;;;;;;5553994;25;20471;-60
2024/04/10 12:50:32;;;;;;;5.20;3.40;;;15.20;99.90;;;;;;5522848;25;20535;-61
2024/04/10 12:53:01;;;;;;;5.23;3.00;;;14.90;99.90;;;;;;5551447;25;21006;-60
2024/04/10 12:55:27;;;;;;;7.00;3.00;;;15.00;99.90;;;;;;5531461;25;20998;-59
2024/04/10 12:57:57;;;;;;;8.13;3.60;;;15.00;99.90;;;;;;5551581;25;20961;-60
2024/04/10 13:00:24;;;;;;;6.70;3.60;;;14.40;99.90;;;;;;5538747;25;20602;-60
2024/04/10 13:02:57;;;;;;;6.27;3.33;;;14.40;99.90;;;;;;5563839;25;20478;-60
2024/04/10 13:05:24;;;;;;;3.70;3.30;;;14.10;99.90;;;;;;5567327;25;20854;-59